Terminal Aerodrome Forecast
Issued by NWS Albany, NY

Home | Current Version | Previous Version | Text Only | Print | Product List | Glossary On
Versions: 1 2 3 4 5 6 7 8 9 10 11 12 13 14 15
596
FTUS41 KALY 222321
TAFALB
TAF
KALB 222321Z 2300/2324 17007KT P6SM FEW200
     FM231700 17011KT P6SM BKN250
     FM232300 16009KT P6SM BKN025=

USA.gov is the U.S. government's official web portal to all federal, state and local government web resources and services.